Time;durP1;ratioP1;P1;durP2;ratioP2;P2;SDS_P1;SDS_P2;PMS_P1;PMS_P2;Temp;Humidity;BMP_temperature;BMP_pressure;BME280_temperature;BME280_humidity;BME280_pressure;Samples;Min_cycle;Max_cycle;Signal;HPM_P1;HPM_P2
2023/07/30 00:00:22;;;;;;;17.45;7.03;;;;;;;;;;5077411;28;20042;-78
2023/07/30 00:02:48;;;;;;;23.45;7.22;;;;;;;;;;5096272;28;20047;-77
2023/07/30 00:05:14;;;;;;;21.20;7.50;;;;;;;;;;5078800;28;20053;-77
2023/07/30 00:07:40;;;;;;;22.02;7.75;;;;;;;;;;5077786;28;20051;-77
2023/07/30 00:10:07;;;;;;;23.02;7.65;;;;;;;;;;5095154;28;20129;-76
2023/07/30 00:12:33;;;;;;;25.13;7.57;;;;;;;;;;5086318;28;20044;-77
2023/07/30 00:14:59;;;;;;;24.65;7.65;;;;;;;;;;5088946;28;20052;-77
2023/07/30 00:17:25;;;;;;;20.92;7.25;;;;;;;;;;5095489;28;20036;-78
2023/07/30 00:19:51;;;;;;;21.70;6.93;;;;;;;;;;5093341;28;20048;-76
2023/07/30 00:22:17;;;;;;;25.20;7.10;;;;;;;;;;5076224;28;20117;-76
2023/07/30 00:24:43;;;;;;;26.13;7.60;;;;;;;;;;5092105;28;20484;-78
2023/07/30 00:27:10;;;;;;;25.38;7.70;;;;;;;;;;5094156;28;20040;-77
2023/07/30 00:29:36;;;;;;;25.70;7.75;;;;;;;;;;5076805;28;20035;-77
2023/07/30 00:32:02;;;;;;;22.95;7.28;;;;;;;;;;5095729;28;20040;-77
2023/07/30 00:34:28;;;;;;;21.50;7.50;;;;;;;;;;5076988;28;20044;-77
2023/07/30 00:36:54;;;;;;;29.35;7.75;;;;;;;;;;5094444;28;20119;-77
2023/07/30 00:39:20;;;;;;;24.40;8.15;;;;;;;;;;5074709;28;20101;-77
2023/07/30 00:41:47;;;;;;;23.90;8.25;;;;;;;;;;5095514;28;20400;-77
2023/07/30 00:44:13;;;;;;;25.27;8.55;;;;;;;;;;5095037;28;20055;-77
2023/07/30 00:46:39;;;;;;;23.17;7.95;;;;;;;;;;5094356;28;20086;-76
2023/07/30 00:49:05;;;;;;;22.55;8.38;;;;;;;;;;5095006;28;20079;-77
2023/07/30 00:51:32;;;;;;;24.70;7.88;;;;;;;;;;5095156;28;20044;-76
2023/07/30 00:53:59;;;;;;;20.92;7.95;;;;;;;;;;5094837;28;20036;-77
2023/07/30 00:56:25;;;;;;;24.48;8.13;;;;;;;;;;5094410;28;20494;-78
2023/07/30 00:58:51;;;;;;;27.73;7.80;;;;;;;;;;5076443;28;20131;-77
2023/07/30 01:01:17;;;;;;;21.13;8.07;;;;;;;;;;5094171;28;20048;-77
2023/07/30 01:03:43;;;;;;;22.27;7.85;;;;;;;;;;5094847;28;20036;-77
2023/07/30 01:06:10;;;;;;;25.02;8.18;;;;;;;;;;5098161;28;20104;-75
2023/07/30 01:08:36;;;;;;;21.65;7.65;;;;;;;;;;5102379;28;20470;-75
2023/07/30 01:11:03;;;;;;;22.45;7.13;;;;;;;;;;5097146;28;20447;-77
2023/07/30 01:13:29;;;;;;;24.08;7.75;;;;;;;;;;5094982;28;20036;-77
2023/07/30 01:15:55;;;;;;;20.60;7.10;;;;;;;;;;5075579;28;20048;-76
2023/07/30 01:18:21;;;;;;;22.27;7.72;;;;;;;;;;5076685;28;20043;-77
2023/07/30 01:20:48;;;;;;;20.02;6.90;;;;;;;;;;5092867;28;20048;-76
2023/07/30 01:23:14;;;;;;;19.33;6.88;;;;;;;;;;5082968;28;20113;-76
2023/07/30 01:25:40;;;;;;;18.65;6.65;;;;;;;;;;5094091;28;20040;-77
2023/07/30 01:28:09;;;;;;;18.90;6.80;;;;;;;;;;5076605;28;20389;-77
2023/07/30 01:30:45;;;;;;;20.83;6.88;;;;;;;;;;5076022;28;20137;-76
2023/07/30 01:33:12;;;;;;;25.20;7.28;;;;;;;;;;5094977;28;20048;-77
2023/07/30 01:35:38;;;;;;;18.48;6.53;;;;;;;;;;5075871;28;20046;-77
2023/07/30 01:38:05;;;;;;;24.23;7.50;;;;;;;;;;5076813;28;20040;-77
2023/07/30 01:40:31;;;;;;;19.85;6.65;;;;;;;;;;5094018;28;20059;-77
2023/07/30 01:42:58;;;;;;;23.85;7.18;;;;;;;;;;5076010;28;20094;-77
2023/07/30 01:45:24;;;;;;;19.58;6.88;;;;;;;;;;5092908;28;20062;-76
2023/07/30 01:47:50;;;;;;;22.95;6.88;;;;;;;;;;5093760;28;20052;-77
2023/07/30 01:50:16;;;;;;;21.73;7.13;;;;;;;;;;5093315;28;20051;-77
2023/07/30 01:52:42;;;;;;;16.98;6.50;;;;;;;;;;5093912;28;20047;-77
2023/07/30 01:55:08;;;;;;;23.90;7.88;;;;;;;;;;5093508;28;20502;-77
2023/07/30 01:57:34;;;;;;;21.48;7.18;;;;;;;;;;5094142;28;20036;-77
2023/07/30 02:00:01;;;;;;;21.90;7.07;;;;;;;;;;5093454;28;20440;-78
2023/07/30 02:02:27;;;;;;;21.65;7.55;;;;;;;;;;5093522;28;20088;-77
2023/07/30 02:04:53;;;;;;;22.48;7.60;;;;;;;;;;5080835;28;20048;-77
2023/07/30 02:07:19;;;;;;;26.42;7.50;;;;;;;;;;5093296;28;20499;-77
2023/07/30 02:09:45;;;;;;;26.95;8.15;;;;;;;;;;5090844;28;20554;-77
2023/07/30 02:12:11;;;;;;;24.40;7.57;;;;;;;;;;5084435;28;20101;-77
2023/07/30 02:14:37;;;;;;;24.02;6.90;;;;;;;;;;5093150;28;20051;-77
2023/07/30 02:17:04;;;;;;;19.67;6.68;;;;;;;;;;5093071;28;20496;-76
2023/07/30 02:19:30;;;;;;;27.38;7.60;;;;;;;;;;5074770;28;20051;-77
2023/07/30 02:21:56;;;;;;;23.00;7.53;;;;;;;;;;5092900;28;20085;-76
2023/07/30 02:24:22;;;;;;;22.60;6.53;;;;;;;;;;5092916;28;20050;-77
2023/07/30 02:26:48;;;;;;;26.77;7.43;;;;;;;;;;5058182;28;20110;-77
2023/07/30 02:29:14;;;;;;;28.25;7.45;;;;;;;;;;5092885;28;20044;-76
2023/07/30 02:31:40;;;;;;;28.73;7.47;;;;;;;;;;5074578;28;20127;-77
2023/07/30 02:34:07;;;;;;;24.05;6.85;;;;;;;;;;5092476;28;20044;-77
2023/07/30 02:36:34;;;;;;;26.55;7.22;;;;;;;;;;5074443;28;20040;-76
2023/07/30 02:39:00;;;;;;;28.52;7.45;;;;;;;;;;5074433;28;20055;-77
2023/07/30 02:41:26;;;;;;;22.25;6.90;;;;;;;;;;5074336;28;20063;-76
2023/07/30 02:43:52;;;;;;;26.23;7.22;;;;;;;;;;5092368;28;20481;-76
2023/07/30 02:46:18;;;;;;;23.83;6.65;;;;;;;;;;5074082;28;20059;-76
2023/07/30 02:48:44;;;;;;;28.20;7.03;;;;;;;;;;5092630;28;20046;-76
2023/07/30 02:51:10;;;;;;;24.88;7.40;;;;;;;;;;5092154;28;20044;-77
2023/07/30 02:53:36;;;;;;;27.50;6.90;;;;;;;;;;5093195;28;20046;-77
2023/07/30 02:56:03;;;;;;;25.83;6.68;;;;;;;;;;5073595;28;20048;-76
2023/07/30 02:58:29;;;;;;;23.45;6.50;;;;;;;;;;5092724;28;20047;-76
2023/07/30 03:00:55;;;;;;;22.23;6.43;;;;;;;;;;5091811;28;20052;-77
2023/07/30 03:03:21;;;;;;;25.58;7.22;;;;;;;;;;5092545;28;20047;-77
2023/07/30 03:05:47;;;;;;;24.80;7.22;;;;;;;;;;5073781;28;20138;-76
2023/07/30 03:08:13;;;;;;;23.30;6.85;;;;;;;;;;5092677;28;20468;-76
2023/07/30 03:10:39;;;;;;;26.38;6.93;;;;;;;;;;5089915;28;20071;-76
2023/07/30 03:13:05;;;;;;;25.05;6.68;;;;;;;;;;5074176;28;20044;-76
2023/07/30 03:15:31;;;;;;;24.92;7.10;;;;;;;;;;5072850;28;20036;-77
2023/07/30 03:17:58;;;;;;;24.35;6.25;;;;;;;;;;5092839;28;20036;-77
2023/07/30 03:20:24;;;;;;;29.83;6.90;;;;;;;;;;5073670;28;20040;-76
2023/07/30 03:22:50;;;;;;;27.05;6.53;;;;;;;;;;5064949;28;20392;-76
2023/07/30 03:25:16;;;;;;;27.48;6.68;;;;;;;;;;5072083;28;20051;-77
2023/07/30 03:27:42;;;;;;;31.88;7.43;;;;;;;;;;5088940;28;20044;-77
2023/07/30 03:30:09;;;;;;;24.35;6.72;;;;;;;;;;5074059;28;20043;-76
2023/07/30 03:32:35;;;;;;;27.23;6.53;;;;;;;;;;5092474;28;20040;-77
2023/07/30 03:35:01;;;;;;;27.85;6.07;;;;;;;;;;5074146;28;20433;-77
2023/07/30 03:37:27;;;;;;;28.73;7.57;;;;;;;;;;5073393;28;20044;-77
2023/07/30 03:39:53;;;;;;;25.10;6.40;;;;;;;;;;5092420;28;20051;-77
2023/07/30 03:42:20;;;;;;;24.98;6.60;;;;;;;;;;5074436;28;20044;-77
2023/07/30 03:44:46;;;;;;;31.17;6.78;;;;;;;;;;5091926;28;20357;-77
2023/07/30 03:47:12;;;;;;;30.55;7.07;;;;;;;;;;5074503;28;20520;-77
2023/07/30 03:49:38;;;;;;;25.40;6.32;;;;;;;;;;5091875;28;20079;-75
2023/07/30 03:52:04;;;;;;;27.23;6.88;;;;;;;;;;5092401;28;20048;-74
2023/07/30 03:54:30;;;;;;;23.60;6.28;;;;;;;;;;5072725;28;20055;-76
2023/07/30 03:56:56;;;;;;;26.77;7.00;;;;;;;;;;5090280;28;20044;-76
2023/07/30 03:59:22;;;;;;;25.00;6.38;;;;;;;;;;5091017;28;20392;-77
2023/07/30 04:01:49;;;;;;;22.02;6.55;;;;;;;;;;5074258;28;20489;-77
2023/07/30 04:04:15;;;;;;;22.75;6.85;;;;;;;;;;5091643;28;20036;-77
2023/07/30 04:06:41;;;;;;;27.75;6.47;;;;;;;;;;5073905;28;20044;-76
2023/07/30 04:09:08;;;;;;;27.27;6.35;;;;;;;;;;5091774;28;20048;-78
2023/07/30 04:11:34;;;;;;;30.83;6.43;;;;;;;;;;5092427;28;20059;-77
2023/07/30 04:14:00;;;;;;;22.25;6.20;;;;;;;;;;5096767;28;20044;-77
2023/07/30 04:16:26;;;;;;;29.98;6.65;;;;;;;;;;5095036;28;20042;-77
2023/07/30 04:18:52;;;;;;;23.95;6.47;;;;;;;;;;5095878;28;20040;-77
2023/07/30 04:21:18;;;;;;;20.27;5.93;;;;;;;;;;5095617;28;20127;-76
2023/07/30 04:23:45;;;;;;;21.65;6.38;;;;;;;;;;5095294;28;20028;-77
2023/07/30 04:26:11;;;;;;;24.75;6.10;;;;;;;;;;5095226;28;20502;-77
2023/07/30 04:28:37;;;;;;;29.52;7.18;;;;;;;;;;5095952;28;20118;-76
2023/07/30 04:31:03;;;;;;;24.15;6.05;;;;;;;;;;5095455;28;20052;-76
2023/07/30 04:33:29;;;;;;;25.20;6.43;;;;;;;;;;5095110;28;20036;-77
2023/07/30 04:35:55;;;;;;;23.77;6.03;;;;;;;;;;5076365;28;20129;-77
2023/07/30 04:38:21;;;;;;;20.45;6.15;;;;;;;;;;5077657;28;20047;-77
2023/07/30 04:40:47;;;;;;;25.40;6.40;;;;;;;;;;5095630;28;20059;-77
2023/07/30 04:43:14;;;;;;;23.80;6.55;;;;;;;;;;5077432;28;20138;-77
2023/07/30 04:45:40;;;;;;;19.85;5.85;;;;;;;;;;5096303;28;20135;-77
2023/07/30 04:48:06;;;;;;;26.42;6.07;;;;;;;;;;5103180;28;20101;-74
2023/07/30 04:50:32;;;;;;;19.98;5.55;;;;;;;;;;5097072;28;20044;-76
2023/07/30 04:52:58;;;;;;;18.23;5.65;;;;;;;;;;5092776;28;20048;-76
2023/07/30 04:55:24;;;;;;;22.73;5.97;;;;;;;;;;5074286;28;20043;-77
2023/07/30 04:57:51;;;;;;;21.85;5.97;;;;;;;;;;5095500;28;20036;-77
2023/07/30 05:00:17;;;;;;;21.70;6.10;;;;;;;;;;5094569;28;20047;-76
2023/07/30 05:02:43;;;;;;;24.55;5.55;;;;;;;;;;5077129;28;20056;-76
2023/07/30 05:05:09;;;;;;;23.65;5.90;;;;;;;;;;5078576;28;20055;-77
2023/07/30 05:07:35;;;;;;;19.55;5.50;;;;;;;;;;5075056;28;20497;-77
2023/07/30 05:10:01;;;;;;;21.80;6.20;;;;;;;;;;5074190;28;20044;-77
2023/07/30 05:12:28;;;;;;;21.35;5.88;;;;;;;;;;5056528;28;20048;-77
2023/07/30 05:14:55;;;;;;;20.15;6.05;;;;;;;;;;5074523;28;20407;-78
2023/07/30 05:17:21;;;;;;;24.15;5.72;;;;;;;;;;5074542;28;20065;-78
2023/07/30 05:19:47;;;;;;;18.48;5.15;;;;;;;;;;5074186;28;20124;-76
2023/07/30 05:22:13;;;;;;;23.45;5.75;;;;;;;;;;5074958;28;20475;-76
2023/07/30 05:24:40;;;;;;;21.90;5.15;;;;;;;;;;5091159;28;20522;-76
2023/07/30 05:27:06;;;;;;;23.55;5.80;;;;;;;;;;5094675;28;20452;-76
2023/07/30 05:29:32;;;;;;;20.77;5.10;;;;;;;;;;5094219;28;20052;-76
2023/07/30 05:31:59;;;;;;;19.05;5.05;;;;;;;;;;5076847;28;20131;-76
2023/07/30 05:34:25;;;;;;;17.23;4.97;;;;;;;;;;5093994;28;20556;-76
2023/07/30 05:36:51;;;;;;;21.70;4.68;;;;;;;;;;5076258;28;20126;-76
2023/07/30 05:39:17;;;;;;;18.65;4.78;;;;;;;;;;5075895;28;20048;-76
2023/07/30 05:41:43;;;;;;;18.38;4.70;;;;;;;;;;5075479;28;20036;-76
2023/07/30 05:44:09;;;;;;;18.05;4.60;;;;;;;;;;5057951;28;20135;-77
2023/07/30 05:46:35;;;;;;;12.68;4.07;;;;;;;;;;5093698;28;20374;-77
2023/07/30 05:49:01;;;;;;;19.00;4.38;;;;;;;;;;5093546;28;20083;-76
2023/07/30 05:51:28;;;;;;;19.20;4.13;;;;;;;;;;5074878;28;20051;-75
2023/07/30 05:53:54;;;;;;;19.60;4.63;;;;;;;;;;5093757;28;20048;-76
2023/07/30 05:56:20;;;;;;;18.77;4.38;;;;;;;;;;5093292;28;20052;-76
2023/07/30 05:58:46;;;;;;;18.15;4.35;;;;;;;;;;5094191;28;20040;-76
2023/07/30 06:01:12;;;;;;;21.00;4.53;;;;;;;;;;5093554;28;20036;-77
2023/07/30 06:03:38;;;;;;;20.20;4.45;;;;;;;;;;5093802;28;20085;-76
2023/07/30 06:06:04;;;;;;;19.20;4.90;;;;;;;;;;5093491;28;20318;-77
2023/07/30 06:08:30;;;;;;;20.50;4.70;;;;;;;;;;5075828;28;20131;-76
2023/07/30 06:11:01;;;;;;;16.70;4.55;;;;;;;;;;5085547;28;20408;-75
2023/07/30 06:13:27;;;;;;;15.90;4.25;;;;;;;;;;5092977;28;20048;-75
2023/07/30 06:15:53;;;;;;;17.17;4.50;;;;;;;;;;5056229;28;20447;-75
2023/07/30 06:18:20;;;;;;;18.83;4.32;;;;;;;;;;5078810;28;20471;-75
2023/07/30 06:20:46;;;;;;;16.63;4.70;;;;;;;;;;5093208;28;20113;-75
2023/07/30 06:23:12;;;;;;;17.10;3.78;;;;;;;;;;5093401;28;20427;-76
2023/07/30 06:25:38;;;;;;;17.95;4.50;;;;;;;;;;5092514;28;20043;-76
2023/07/30 06:28:05;;;;;;;14.73;3.40;;;;;;;;;;5093062;28;20039;-76
2023/07/30 06:30:32;;;;;;;14.40;3.72;;;;;;;;;;5092775;28;20044;-76
2023/07/30 06:32:58;;;;;;;15.85;3.70;;;;;;;;;;5093362;28;20040;-77
2023/07/30 06:35:25;;;;;;;16.05;3.70;;;;;;;;;;5092092;28;20139;-76
2023/07/30 06:37:51;;;;;;;16.70;4.35;;;;;;;;;;5092443;28;20181;-76
2023/07/30 06:40:17;;;;;;;14.07;3.70;;;;;;;;;;5092442;28;20480;-78
2023/07/30 06:42:43;;;;;;;19.17;3.70;;;;;;;;;;5093146;28;20046;-79
2023/07/30 06:45:09;;;;;;;16.27;3.80;;;;;;;;;;5092403;28;20102;-78
2023/07/30 06:47:36;;;;;;;14.65;3.88;;;;;;;;;;5092696;28;20036;-78
2023/07/30 06:50:03;;;;;;;18.67;4.97;;;;;;;;;;5091818;28;20147;-77
2023/07/30 06:52:29;;;;;;;17.13;4.10;;;;;;;;;;5091142;28;20048;-76
2023/07/30 06:54:56;;;;;;;14.68;4.38;;;;;;;;;;5087571;28;20075;-77
2023/07/30 06:57:22;;;;;;;14.35;4.38;;;;;;;;;;5071253;28;20081;-78
2023/07/30 06:59:48;;;;;;;16.67;3.97;;;;;;;;;;5090602;28;20050;-78
2023/07/30 07:02:14;;;;;;;12.68;4.00;;;;;;;;;;5092267;28;20369;-78
2023/07/30 07:04:40;;;;;;;15.02;4.15;;;;;;;;;;5074163;28;20048;-78
2023/07/30 07:07:06;;;;;;;14.30;4.20;;;;;;;;;;5092861;28;20040;-77
2023/07/30 07:09:33;;;;;;;15.18;4.00;;;;;;;;;;5089972;28;20048;-78
2023/07/30 07:11:59;;;;;;;15.18;3.92;;;;;;;;;;5093026;28;20036;-78
2023/07/30 07:14:26;;;;;;;16.60;4.00;;;;;;;;;;5092170;28;20496;-78
2023/07/30 07:16:53;;;;;;;14.00;3.42;;;;;;;;;;5092045;28;20040;-78
2023/07/30 07:19:19;;;;;;;14.55;3.50;;;;;;;;;;5092516;28;20040;-78
2023/07/30 07:21:45;;;;;;;12.95;3.67;;;;;;;;;;5091792;28;20047;-78
2023/07/30 07:24:11;;;;;;;14.43;3.95;;;;;;;;;;5092055;28;20040;-78
2023/07/30 07:26:37;;;;;;;11.75;3.63;;;;;;;;;;5091992;28;20048;-79
2023/07/30 07:29:03;;;;;;;10.02;3.00;;;;;;;;;;5092241;28;20074;-78
2023/07/30 07:31:30;;;;;;;12.40;3.30;;;;;;;;;;5092542;28;20423;-77
2023/07/30 07:33:56;;;;;;;13.30;3.28;;;;;;;;;;5092587;28;20067;-78
2023/07/30 07:36:22;;;;;;;14.20;3.58;;;;;;;;;;5088644;28;20063;-78
2023/07/30 07:38:48;;;;;;;12.18;3.13;;;;;;;;;;5074747;28;20091;-78
2023/07/30 07:41:16;;;;;;;9.93;2.80;;;;;;;;;;5091257;28;20044;-77
2023/07/30 07:43:42;;;;;;;12.13;2.80;;;;;;;;;;5091446;28;20048;-78
2023/07/30 07:46:13;;;;;;;13.00;2.92;;;;;;;;;;5091575;28;20482;-78
2023/07/30 07:48:42;;;;;;;11.55;3.00;;;;;;;;;;5095603;28;20047;-77
2023/07/30 07:51:10;;;;;;;11.98;3.00;;;;;;;;;;5095141;28;20035;-77
2023/07/30 07:53:36;;;;;;;16.52;3.28;;;;;;;;;;5096133;28;20032;-77
2023/07/30 07:56:03;;;;;;;13.98;2.63;;;;;;;;;;5094619;28;20072;-76
2023/07/30 07:58:29;;;;;;;8.82;2.33;;;;;;;;;;5079050;28;20345;-78
2023/07/30 08:00:56;;;;;;;11.88;2.63;;;;;;;;;;5079548;28;20409;-77
2023/07/30 08:03:22;;;;;;;12.75;2.80;;;;;;;;;;5077727;28;20492;-77
2023/07/30 08:05:48;;;;;;;11.05;2.85;;;;;;;;;;5090041;28;20133;-78
2023/07/30 08:08:15;;;;;;;9.05;2.25;;;;;;;;;;5096312;28;20051;-77
2023/07/30 08:10:43;;;;;;;8.98;2.80;;;;;;;;;;5077420;28;20480;-78
2023/07/30 08:13:12;;;;;;;13.38;2.90;;;;;;;;;;5095610;28;20067;-77
2023/07/30 08:15:39;;;;;;;7.15;2.38;;;;;;;;;;5077797;28;20179;-79
2023/07/30 08:18:05;;;;;;;10.90;2.50;;;;;;;;;;5097110;28;20045;-75
2023/07/30 08:20:31;;;;;;;8.30;3.13;;;;;;;;;;5093388;28;20108;-75
2023/07/30 08:22:57;;;;;;;8.63;2.50;;;;;;;;;;5090235;28;20080;-77
2023/07/30 08:25:23;;;;;;;10.70;2.40;;;;;;;;;;5095825;28;20074;-77
2023/07/30 08:27:49;;;;;;;11.50;2.50;;;;;;;;;;5096313;28;20051;-77
2023/07/30 08:30:15;;;;;;;9.75;2.50;;;;;;;;;;5076367;28;20499;-77
2023/07/30 08:32:43;;;;;;;10.15;2.25;;;;;;;;;;5095062;28;20346;-77
2023/07/30 08:35:09;;;;;;;11.30;2.47;;;;;;;;;;5060078;28;20048;-77
2023/07/30 08:37:35;;;;;;;13.02;3.05;;;;;;;;;;5078211;28;20040;-77
2023/07/30 08:40:01;;;;;;;11.20;2.78;;;;;;;;;;5072792;28;20384;-76
2023/07/30 08:42:27;;;;;;;11.68;2.80;;;;;;;;;;5095443;28;20129;-78
2023/07/30 08:44:54;;;;;;;11.63;2.45;;;;;;;;;;5076514;28;20112;-78
2023/07/30 08:47:20;;;;;;;15.98;2.88;;;;;;;;;;5086043;28;20125;-77
2023/07/30 08:49:46;;;;;;;11.23;2.40;;;;;;;;;;5073036;28;20485;-77
2023/07/30 08:52:12;;;;;;;8.02;2.20;;;;;;;;;;5084780;28;20086;-77
2023/07/30 08:54:39;;;;;;;11.85;2.63;;;;;;;;;;5091404;28;20048;-78
2023/07/30 08:57:06;;;;;;;13.18;3.03;;;;;;;;;;5074848;28;20074;-77
2023/07/30 08:59:34;;;;;;;10.57;2.53;;;;;;;;;;5080659;28;20128;-77
2023/07/30 09:02:01;;;;;;;8.90;2.67;;;;;;;;;;5040250;28;20041;-77
2023/07/30 09:04:28;;;;;;;7.45;2.22;;;;;;;;;;5071551;28;20126;-75
2023/07/30 09:06:54;;;;;;;15.00;2.50;;;;;;;;;;5095129;28;20047;-78
2023/07/30 09:09:20;;;;;;;9.70;2.40;;;;;;;;;;5093477;28;20072;-77
2023/07/30 09:11:56;;;;;;;7.63;2.25;;;;;;;;;;5077016;28;20573;-77
2023/07/30 09:14:22;;;;;;;10.50;2.40;;;;;;;;;;5094635;28;20374;-77
2023/07/30 09:16:48;;;;;;;7.90;2.60;;;;;;;;;;5076562;28;20040;-77
2023/07/30 09:19:18;;;;;;;8.93;2.33;;;;;;;;;;5094618;28;20036;-77
2023/07/30 09:21:44;;;;;;;9.27;2.40;;;;;;;;;;5094856;28;20044;-77
2023/07/30 09:24:11;;;;;;;11.93;2.38;;;;;;;;;;5093132;28;20048;-75
2023/07/30 09:26:42;;;;;;;11.50;2.70;;;;;;;;;;5086478;28;20036;-76
2023/07/30 09:29:09;;;;;;;11.77;2.50;;;;;;;;;;5073848;28;20044;-76
2023/07/30 09:31:53;;;;;;;12.05;2.63;;;;;;;;;;5089475;28;20040;-76
2023/07/30 09:34:20;;;;;;;9.98;2.40;;;;;;;;;;5076018;28;20055;-75
2023/07/30 09:36:46;;;;;;;7.38;2.22;;;;;;;;;;5093228;28;20040;-76
2023/07/30 09:39:16;;;;;;;8.15;2.20;;;;;;;;;;5094021;28;20048;-78
2023/07/30 09:41:42;;;;;;;5.65;1.90;;;;;;;;;;5093037;28;20067;-77
2023/07/30 09:44:09;;;;;;;6.55;2.00;;;;;;;;;;5094253;28;20048;-77
2023/07/30 09:46:42;;;;;;;7.47;2.00;;;;;;;;;;5093684;28;20131;-77
2023/07/30 09:49:09;;;;;;;5.00;1.83;;;;;;;;;;5075168;28;20055;-77
2023/07/30 09:51:37;;;;;;;6.80;2.00;;;;;;;;;;5093658;28;20159;-78
2023/07/30 09:54:03;;;;;;;5.75;1.98;;;;;;;;;;5093949;28;20048;-77
2023/07/30 09:56:29;;;;;;;6.05;1.83;;;;;;;;;;5093873;28;20053;-78
2023/07/30 09:58:55;;;;;;;6.97;2.08;;;;;;;;;;5093396;28;20051;-78
2023/07/30 10:01:23;;;;;;;5.90;1.90;;;;;;;;;;5074184;28;20058;-78
2023/07/30 10:03:50;;;;;;;6.53;2.03;;;;;;;;;;5092790;28;20095;-76
2023/07/30 10:06:16;;;;;;;8.00;2.35;;;;;;;;;;5092913;28;20916;-76
2023/07/30 10:08:44;;;;;;;5.80;1.70;;;;;;;;;;5093683;28;20559;-78
2023/07/30 10:11:14;;;;;;;5.88;1.80;;;;;;;;;;5092640;28;20101;-78
2023/07/30 10:13:41;;;;;;;8.95;2.00;;;;;;;;;;5092507;28;20197;-79
2023/07/30 10:16:14;;;;;;;6.18;2.28;;;;;;;;;;5092652;28;20093;-79
2023/07/30 10:18:40;;;;;;;7.43;2.10;;;;;;;;;;5092645;28;20038;-79
2023/07/30 10:21:10;;;;;;;6.30;2.10;;;;;;;;;;5091930;28;20119;-78
2023/07/30 10:23:36;;;;;;;5.90;1.95;;;;;;;;;;5068748;28;20040;-78
2023/07/30 10:26:11;;;;;;;6.70;2.00;;;;;;;;;;5081024;28;20079;-77
2023/07/30 10:28:43;;;;;;;5.88;1.80;;;;;;;;;;5089159;28;20040;-78
2023/07/30 10:31:09;;;;;;;5.97;1.80;;;;;;;;;;5071886;28;20092;-78
2023/07/30 10:33:46;;;;;;;6.38;1.90;;;;;;;;;;5071030;28;20393;-77
2023/07/30 10:36:12;;;;;;;8.00;1.90;;;;;;;;;;5087133;28;20122;-77
2023/07/30 10:38:41;;;;;;;7.70;2.10;;;;;;;;;;5075121;28;20036;-77
2023/07/30 10:41:13;;;;;;;7.15;2.10;;;;;;;;;;5087990;28;20047;-77
2023/07/30 10:43:43;;;;;;;8.55;2.20;;;;;;;;;;5092642;28;20044;-77
2023/07/30 10:46:10;;;;;;;8.90;2.00;;;;;;;;;;5072049;28;20058;-75
2023/07/30 10:48:43;;;;;;;8.55;2.00;;;;;;;;;;5076492;28;20048;-77
2023/07/30 10:51:10;;;;;;;10.93;2.28;;;;;;;;;;5077989;28;20511;-76
2023/07/30 10:53:39;;;;;;;12.43;2.45;;;;;;;;;;5092571;28;20111;-77
2023/07/30 10:56:06;;;;;;;8.45;2.75;;;;;;;;;;5090699;28;20098;-77
2023/07/30 10:58:33;;;;;;;7.28;2.28;;;;;;;;;;5091106;28;20048;-77
2023/07/30 11:01:00;;;;;;;11.10;2.33;;;;;;;;;;5070237;28;20598;-77
2023/07/30 11:03:29;;;;;;;9.80;2.42;;;;;;;;;;5072308;28;20043;-77
2023/07/30 11:05:55;;;;;;;6.78;2.30;;;;;;;;;;5069374;28;20640;-78
2023/07/30 11:08:37;;;;;;;9.00;2.28;;;;;;;;;;5083066;28;20119;-78
2023/07/30 11:11:04;;;;;;;10.18;2.25;;;;;;;;;;5092040;28;20059;-78
2023/07/30 11:13:30;;;;;;;8.82;2.90;;;;;;;;;;5092304;28;20040;-78
2023/07/30 11:15:56;;;;;;;8.93;2.20;;;;;;;;;;5091945;28;20036;-78
2023/07/30 11:18:22;;;;;;;7.55;2.05;;;;;;;;;;5090847;28;20036;-78
2023/07/30 11:20:49;;;;;;;8.90;2.13;;;;;;;;;;5092455;28;20103;-77
2023/07/30 11:23:22;;;;;;;8.15;2.17;;;;;;;;;;5092170;28;20468;-77
2023/07/30 11:25:49;;;;;;;8.23;2.45;;;;;;;;;;5091979;28;20396;-77
2023/07/30 11:28:28;;;;;;;11.25;2.70;;;;;;;;;;5092555;28;20116;-78
2023/07/30 11:30:54;;;;;;;7.57;2.33;;;;;;;;;;5091527;28;20048;-77
2023/07/30 11:33:20;;;;;;;6.70;2.13;;;;;;;;;;5074337;28;20123;-77
2023/07/30 11:35:47;;;;;;;11.45;2.53;;;;;;;;;;5091795;28;20044;-77
2023/07/30 11:38:13;;;;;;;9.80;2.38;;;;;;;;;;5092411;28;20040;-75
2023/07/30 11:40:40;;;;;;;6.80;2.35;;;;;;;;;;5069976;28;20083;-77
2023/07/30 11:43:06;;;;;;;7.13;2.20;;;;;;;;;;5073255;28;20048;-77
2023/07/30 11:45:32;;;;;;;8.85;2.50;;;;;;;;;;5073539;28;20060;-78
2023/07/30 11:48:09;;;;;;;9.27;2.40;;;;;;;;;;5091002;28;20183;-77
2023/07/30 11:50:44;;;;;;;8.43;2.40;;;;;;;;;;5090883;28;20054;-78
2023/07/30 11:53:11;;;;;;;8.48;2.05;;;;;;;;;;5091542;28;20032;-72
2023/07/30 11:55:38;;;;;;;8.27;2.05;;;;;;;;;;5084305;28;20049;-72
2023/07/30 11:58:04;;;;;;;6.95;2.28;;;;;;;;;;5096055;28;20036;-71
2023/07/30 12:00:32;;;;;;;7.63;2.08;;;;;;;;;;5091883;28;20116;-72
2023/07/30 12:03:02;;;;;;;10.10;2.20;;;;;;;;;;5091807;28;20461;-72
2023/07/30 12:05:35;;;;;;;11.60;2.63;;;;;;;;;;5085920;28;20046;-73
2023/07/30 12:08:03;;;;;;;9.35;2.08;;;;;;;;;;5080561;28;20052;-72
2023/07/30 12:10:42;;;;;;;12.80;2.45;;;;;;;;;;5089333;28;20123;-76
2023/07/30 12:13:26;;;;;;;8.20;2.30;;;;;;;;;;5075303;28;20492;-79
2023/07/30 12:15:53;;;;;;;10.57;2.60;;;;;;;;;;5088860;28;20111;-78
2023/07/30 12:18:20;;;;;;;7.75;2.10;;;;;;;;;;5070527;28;20063;-78
2023/07/30 12:20:47;;;;;;;6.63;1.95;;;;;;;;;;5086267;28;20482;-78
2023/07/30 12:23:13;;;;;;;6.80;2.03;;;;;;;;;;5087729;28;20500;-78
2023/07/30 12:25:39;;;;;;;8.07;1.92;;;;;;;;;;5088413;28;20084;-77
2023/07/30 12:28:05;;;;;;;8.80;2.10;;;;;;;;;;5054004;28;20048;-78
2023/07/30 12:30:31;;;;;;;6.25;2.00;;;;;;;;;;5088686;28;20429;-77
2023/07/30 12:32:58;;;;;;;6.53;1.75;;;;;;;;;;5088767;28;20036;-78
2023/07/30 12:35:24;;;;;;;5.88;1.77;;;;;;;;;;5091927;28;20059;-79
2023/07/30 12:37:50;;;;;;;5.75;1.80;;;;;;;;;;5092960;28;20447;-79
2023/07/30 12:40:17;;;;;;;7.97;1.83;;;;;;;;;;5093017;28;20036;-71
2023/07/30 12:42:43;;;;;;;4.25;1.63;;;;;;;;;;5095491;28;20043;-71
2023/07/30 12:45:09;;;;;;;7.75;2.20;;;;;;;;;;5093334;28;20056;-70
2023/07/30 12:47:36;;;;;;;9.50;1.90;;;;;;;;;;5094863;28;20052;-70
2023/07/30 12:50:03;;;;;;;7.68;1.80;;;;;;;;;;5094466;28;20040;-70
2023/07/30 12:52:29;;;;;;;9.82;2.38;;;;;;;;;;5094143;28;20051;-70
2023/07/30 12:54:55;;;;;;;11.48;2.35;;;;;;;;;;5076695;28;20047;-71
2023/07/30 12:57:21;;;;;;;7.43;2.30;;;;;;;;;;5078672;28;20039;-70
2023/07/30 12:59:48;;;;;;;7.78;1.98;;;;;;;;;;5076404;28;20131;-70
2023/07/30 13:02:14;;;;;;;9.07;2.22;;;;;;;;;;5076941;28;20040;-70
2023/07/30 13:04:40;;;;;;;9.10;2.28;;;;;;;;;;5082582;28;20443;-71
2023/07/30 13:07:06;;;;;;;8.82;2.30;;;;;;;;;;5074814;28;20040;-71
2023/07/30 13:09:32;;;;;;;8.43;2.13;;;;;;;;;;5072759;28;20048;-71
2023/07/30 13:11:59;;;;;;;5.53;1.73;;;;;;;;;;5091024;28;20040;-70
2023/07/30 13:14:25;;;;;;;5.18;1.70;;;;;;;;;;5082578;28;20428;-70
2023/07/30 13:16:51;;;;;;;4.63;1.80;;;;;;;;;;5094138;28;20054;-70
2023/07/30 13:19:17;;;;;;;7.75;1.65;;;;;;;;;;5074921;28;20078;-71
2023/07/30 13:21:43;;;;;;;6.20;2.05;;;;;;;;;;5079972;28;20048;-70
2023/07/30 13:24:09;;;;;;;6.57;1.60;;;;;;;;;;5073922;28;20385;-71
2023/07/30 13:26:36;;;;;;;10.70;2.33;;;;;;;;;;5073954;28;20393;-70
2023/07/30 13:29:02;;;;;;;6.85;1.80;;;;;;;;;;5074143;28;20060;-70
2023/07/30 13:31:30;;;;;;;6.00;2.00;;;;;;;;;;5073643;28;20063;-71
2023/07/30 13:33:56;;;;;;;7.22;1.70;;;;;;;;;;5085117;28;20048;-70
2023/07/30 13:36:23;;;;;;;5.95;1.70;;;;;;;;;;5093728;28;20484;-73
2023/07/30 13:38:49;;;;;;;7.85;1.88;;;;;;;;;;5093838;28;20040;-75
2023/07/30 13:41:15;;;;;;;6.28;1.80;;;;;;;;;;5093340;28;20040;-73
2023/07/30 13:43:41;;;;;;;8.05;1.85;;;;;;;;;;5094211;28;20048;-73
2023/07/30 13:46:07;;;;;;;7.40;2.03;;;;;;;;;;5092978;28;20058;-73
2023/07/30 13:48:33;;;;;;;6.18;1.98;;;;;;;;;;5093365;28;20102;-73
2023/07/30 13:50:59;;;;;;;8.68;2.17;;;;;;;;;;5093371;28;20411;-74
2023/07/30 13:53:26;;;;;;;6.20;2.00;;;;;;;;;;5093999;28;20046;-74
2023/07/30 13:55:52;;;;;;;6.60;1.80;;;;;;;;;;5093766;28;20479;-74
2023/07/30 13:58:18;;;;;;;7.68;1.80;;;;;;;;;;5059079;28;20112;-74
2023/07/30 14:00:44;;;;;;;9.98;1.70;;;;;;;;;;5093377;28;20516;-73
2023/07/30 14:03:11;;;;;;;8.02;1.77;;;;;;;;;;5093711;28;20040;-75
2023/07/30 14:05:38;;;;;;;5.90;1.67;;;;;;;;;;5073000;28;20059;-74
2023/07/30 14:08:04;;;;;;;5.38;1.70;;;;;;;;;;5072487;28;20068;-74
2023/07/30 14:10:30;;;;;;;7.72;1.80;;;;;;;;;;5072921;28;20048;-74
2023/07/30 14:12:56;;;;;;;7.80;1.77;;;;;;;;;;5055603;28;20129;-74
2023/07/30 14:15:22;;;;;;;9.32;1.92;;;;;;;;;;5072825;28;20059;-74
2023/07/30 14:17:48;;;;;;;8.35;1.83;;;;;;;;;;5073365;28;20370;-74
2023/07/30 14:20:14;;;;;;;6.07;1.98;;;;;;;;;;5055111;28;20036;-74
2023/07/30 14:22:40;;;;;;;8.65;2.00;;;;;;;;;;5055621;28;20440;-74
2023/07/30 14:25:07;;;;;;;8.55;1.88;;;;;;;;;;5073062;28;20048;-74
2023/07/30 14:27:33;;;;;;;7.18;2.33;;;;;;;;;;5073468;28;20091;-74
2023/07/30 14:29:59;;;;;;;6.07;2.00;;;;;;;;;;5073001;28;20454;-74